Time,TemperatureF,DewpointF,PressureIn,WindDirection,WindDirectionDegrees,WindSpeedMPH,WindSpeedGustMPH,Humidity,HourlyPrecipIn,Conditions,Clouds,dailyrainin,SoftwareType,DateUTC
2013-11-30 00:14:00,33.1,31.0,30.41,SSE,162,0.0,0.0,91,0.00,,,0.00,weatherlink.com 1.10,2013-11-30 06:14:00,
2013-11-30 00:29:00,32.9,31.0,30.41,SSE,162,0.0,0.0,91,0.00,,,0.00,weatherlink.com 1.10,2013-11-30 06:29:00,
2013-11-30 00:44:00,32.7,30.0,30.40,SSE,162,0.0,0.0,90,0.00,,,0.00,weatherlink.com 1.10,2013-11-30 06:44:00,
2013-11-30 00:59:00,32.7,30.0,30.40,SSE,162,0.0,0.0,90,0.00,,,0.00,weatherlink.com 1.10,2013-11-30 06:59:00,
2013-11-30 01:14:00,32.4,30.0,30.40,SSE,163,0.0,0.0,90,0.00,,,0.00,weatherlink.com 1.10,2013-11-30 07:14:00,
2013-11-30 01:29:00,32.1,30.0,30.39,SSE,163,0.0,0.0,91,0.00,,,0.00,weatherlink.com 1.10,2013-11-30 07:29:00,
2013-11-30 01:44:00,32.2,30.0,30.39,SSE,163,0.0,0.0,90,0.00,,,0.00,weatherlink.com 1.10,2013-11-30 07:44:00,
2013-11-30 01:59:00,32.1,30.0,30.41,SSE,163,0.0,0.0,91,0.00,,,0.00,weatherlink.com 1.10,2013-11-30 07:59:00,
2013-11-30 02:14:00,32.1,30.0,30.41,SSE,163,0.0,0.0,90,0.00,,,0.00,weatherlink.com 1.10,2013-11-30 08:14:00,
2013-11-30 02:29:00,31.9,30.0,30.40,SSE,163,0.0,0.0,91,0.00,,,0.00,weatherlink.com 1.10,2013-11-30 08:29:00,
2013-11-30 02:44:00,31.9,30.0,30.41,SSE,162,0.0,0.0,91,0.00,,,0.00,weatherlink.com 1.10,2013-11-30 08:44:00,
2013-11-30 02:59:00,31.6,29.0,30.40,SSE,162,0.0,0.0,90,0.00,,,0.00,weatherlink.com 1.10,2013-11-30 08:59:00,
2013-11-30 03:14:00,31.6,29.0,30.41,SSE,162,0.0,0.0,90,0.00,,,0.00,weatherlink.com 1.10,2013-11-30 09:14:00,
2013-11-30 03:29:00,31.5,29.0,30.40,SSE,163,0.0,0.0,90,0.00,,,0.00,weatherlink.com 1.10,2013-11-30 09:29:00,
2013-11-30 03:44:00,31.5,29.0,30.40,SSE,163,0.0,0.0,90,0.00,,,0.00,weatherlink.com 1.10,2013-11-30 09:44:00,
2013-11-30 03:59:00,31.3,29.0,30.40,SSE,163,0.0,0.0,90,0.00,,,0.00,weatherlink.com 1.10,2013-11-30 09:59:00,
2013-11-30 04:14:00,31.1,29.0,30.40,SSE,163,0.0,0.0,90,0.00,,,0.00,weatherlink.com 1.10,2013-11-30 10:14:00,
2013-11-30 04:29:00,31.3,29.0,30.41,SSE,163,0.0,0.0,90,0.00,,,0.00,weatherlink.com 1.10,2013-11-30 10:29:00,
2013-11-30 04:44:00,31.3,29.0,30.41,SSE,162,0.0,0.0,90,0.00,,,0.00,weatherlink.com 1.10,2013-11-30 10:44:00,
2013-11-30 04:59:00,31.7,29.0,30.41,SSE,162,0.0,0.0,90,0.00,,,0.00,weatherlink.com 1.10,2013-11-30 10:59:00,
2013-11-30 05:14:00,32.3,30.0,30.41,SSE,163,0.0,0.0,90,0.00,,,0.00,weatherlink.com 1.10,2013-11-30 11:14:00,
2013-11-30 05:29:00,32.8,30.0,30.41,SSE,163,0.0,0.0,90,0.00,,,0.00,weatherlink.com 1.10,2013-11-30 11:29:00,
2013-11-30 05:44:00,33.3,31.0,30.41,SSE,163,0.0,1.0,90,0.00,,,0.00,weatherlink.com 1.10,2013-11-30 11:44:00,
2013-11-30 06:00:00,33.6,31.0,30.40,SSE,163,0.0,0.0,90,0.00,,,0.00,weatherlink.com 1.10,2013-11-30 12:00:00,
2013-11-30 06:15:00,34.4,32.0,30.40,SSE,163,0.0,0.0,90,0.00,,,0.00,weatherlink.com 1.10,2013-11-30 12:15:00,
2013-11-30 06:30:00,35.1,33.0,30.40,SSE,163,0.0,0.0,90,0.00,,,0.00,weatherlink.com 1.10,2013-11-30 12:30:00,
2013-11-30 06:45:00,35.3,33.0,30.41,SSE,163,0.0,0.0,90,0.00,,,0.00,weatherlink.com 1.10,2013-11-30 12:45:00,
2013-11-30 07:00:00,36.0,33.0,30.41,SSE,163,0.0,0.0,90,0.00,,,0.00,weatherlink.com 1.10,2013-11-30 13:00:00,
2013-11-30 07:15:00,36.2,34.0,30.41,SSE,163,0.0,0.0,90,0.00,,,0.00,weatherlink.com 1.10,2013-11-30 13:15:00,
2013-11-30 07:30:00,36.7,34.0,30.42,SSE,163,0.0,1.0,90,0.00,,,0.00,weatherlink.com 1.10,2013-11-30 13:30:00,
2013-11-30 07:45:00,37.1,34.0,30.42,SSE,163,0.0,0.0,89,0.00,,,0.00,weatherlink.com 1.10,2013-11-30 13:45:00,
2013-11-30 08:00:00,38.0,35.0,30.41,SSE,163,0.0,0.0,89,0.00,,,0.00,weatherlink.com 1.10,2013-11-30 14:00:00,
2013-11-30 08:15:00,39.0,36.0,30.41,SSE,163,0.0,0.0,89,0.00,,,0.00,weatherlink.com 1.10,2013-11-30 14:15:00,
2013-11-30 08:30:00,40.2,37.0,30.41,SSE,163,0.0,0.0,89,0.00,,,0.00,weatherlink.com 1.10,2013-11-30 14:30:00,
2013-11-30 08:45:00,41.8,39.0,30.42,SSE,162,0.0,0.0,89,0.00,,,0.00,weatherlink.com 1.10,2013-11-30 14:45:00,
2013-11-30 09:00:00,43.0,40.0,30.43,SSE,162,0.0,0.0,89,0.00,,,0.00,weatherlink.com 1.10,2013-11-30 15:00:00,
2013-11-30 09:15:00,43.9,41.0,30.43,SSE,163,0.0,0.0,89,0.00,,,0.00,weatherlink.com 1.10,2013-11-30 15:15:00,
2013-11-30 09:30:00,44.6,42.0,30.43,SSE,163,0.0,1.0,90,0.00,,,0.00,weatherlink.com 1.10,2013-11-30 15:30:00,
2013-11-30 09:45:00,45.4,43.0,30.44,SSE,163,0.0,1.0,90,0.00,,,0.00,weatherlink.com 1.10,2013-11-30 15:45:00,
2013-11-30 10:00:00,45.7,42.0,30.43,SSE,163,0.0,1.0,88,0.00,,,0.00,weatherlink.com 1.10,2013-11-30 16:00:00,
2013-11-30 10:15:00,46.6,42.0,30.42,SSE,163,0.0,0.0,84,0.00,,,0.00,weatherlink.com 1.10,2013-11-30 16:15:00,
2013-11-30 10:30:00,47.6,42.0,30.42,SSE,163,0.0,0.0,82,0.00,,,0.00,weatherlink.com 1.10,2013-11-30 16:30:00,
2013-11-30 10:45:00,48.5,42.0,30.42,SSE,162,0.0,0.0,79,0.00,,,0.00,weatherlink.com 1.10,2013-11-30 16:45:00,
2013-11-30 11:00:00,49.3,42.0,30.41,SSE,163,0.0,0.0,77,0.00,,,0.00,weatherlink.com 1.10,2013-11-30 17:00:00,
2013-11-30 11:15:00,49.8,42.0,30.41,SSE,162,0.0,1.0,74,0.00,,,0.00,weatherlink.com 1.10,2013-11-30 17:15:00,
2013-11-30 11:30:00,50.2,41.0,30.40,SSE,162,0.0,0.0,72,0.00,,,0.00,weatherlink.com 1.10,2013-11-30 17:30:00,
2013-11-30 11:46:00,50.9,42.0,30.39,SSE,162,0.0,0.0,72,0.00,,,0.00,weatherlink.com 1.10,2013-11-30 17:46:00,
2013-11-30 12:01:00,51.8,43.0,30.38,SSE,162,0.0,1.0,73,0.00,,,0.00,weatherlink.com 1.10,2013-11-30 18:01:00,
2013-11-30 12:16:00,52.1,44.0,30.37,SSE,163,0.0,0.0,74,0.00,,,0.00,weatherlink.com 1.10,2013-11-30 18:16:00,
2013-11-30 12:31:00,52.6,45.0,30.36,SSE,163,1.0,2.0,74,0.00,,,0.00,weatherlink.com 1.10,2013-11-30 18:31:00,
2013-11-30 12:46:00,53.4,45.0,30.35,SSE,163,0.0,1.0,73,0.00,,,0.00,weatherlink.com 1.10,2013-11-30 18:46:00,
2013-11-30 13:01:00,54.4,46.0,30.34,SSE,163,0.0,1.0,72,0.00,,,0.00,weatherlink.com 1.10,2013-11-30 19:01:00,
2013-11-30 13:16:00,55.9,47.0,30.33,SSE,163,0.0,1.0,72,0.00,,,0.00,weatherlink.com 1.10,2013-11-30 19:16:00,
2013-11-30 13:31:00,57.4,48.0,30.32,SE,134,0.0,2.0,70,0.00,,,0.00,weatherlink.com 1.10,2013-11-30 19:31:00,
2013-11-30 13:46:00,58.4,48.0,30.31,SSE,148,0.0,2.0,69,0.00,,,0.00,weatherlink.com 1.10,2013-11-30 19:46:00,
2013-11-30 14:01:00,59.4,49.0,30.29,SSE,148,0.0,0.0,69,0.00,,,0.00,weatherlink.com 1.10,2013-11-30 20:01:00,
2013-11-30 14:16:00,60.5,49.0,30.30,SSE,149,0.0,2.0,65,0.00,,,0.00,weatherlink.com 1.10,2013-11-30 20:16:00,
2013-11-30 14:31:00,60.6,49.0,30.29,SSE,149,0.0,0.0,65,0.00,,,0.00,weatherlink.com 1.10,2013-11-30 20:31:00,
2013-11-30 14:46:00,61.0,49.0,30.29,SSE,151,0.0,0.0,66,0.00,,,0.00,weatherlink.com 1.10,2013-11-30 20:46:00,
2013-11-30 15:01:00,61.2,49.0,30.28,SSE,151,0.0,0.0,64,0.00,,,0.00,weatherlink.com 1.10,2013-11-30 21:01:00,
2013-11-30 15:17:00,61.3,50.0,30.28,SSE,151,0.0,1.0,67,0.00,,,0.00,weatherlink.com 1.10,2013-11-30 21:17:00,
2013-11-30 15:31:00,61.4,50.0,30.27,SSE,151,0.0,0.0,66,0.00,,,0.00,weatherlink.com 1.10,2013-11-30 21:31:00,
2013-11-30 15:46:00,61.4,50.0,30.27,SSE,151,0.0,0.0,67,0.00,,,0.00,weatherlink.com 1.10,2013-11-30 21:46:00,
2013-11-30 16:01:00,60.6,50.0,30.27,SSE,151,0.0,0.0,67,0.00,,,0.00,weatherlink.com 1.10,2013-11-30 22:01:00,
2013-11-30 16:16:00,59.9,50.0,30.25,SSE,151,0.0,0.0,69,0.00,,,0.00,weatherlink.com 1.10,2013-11-30 22:16:00,
2013-11-30 16:31:00,59.0,50.0,30.26,SSE,151,0.0,0.0,72,0.00,,,0.00,weatherlink.com 1.10,2013-11-30 22:31:00,
2013-11-30 16:46:00,58.3,50.0,30.25,SSE,151,0.0,0.0,74,0.00,,,0.00,weatherlink.com 1.10,2013-11-30 22:46:00,
2013-11-30 17:01:00,56.8,50.0,30.25,SSE,151,0.0,0.0,77,0.00,,,0.00,weatherlink.com 1.10,2013-11-30 23:01:00,
2013-11-30 17:16:00,55.3,50.0,30.25,SSE,151,0.0,0.0,81,0.00,,,0.00,weatherlink.com 1.10,2013-11-30 23:16:00,
2013-11-30 17:31:00,53.9,49.0,30.25,SSE,151,0.0,0.0,83,0.00,,,0.00,weatherlink.com 1.10,2013-11-30 23:31:00,
2013-11-30 17:46:00,52.6,48.0,30.25,SSE,151,0.0,0.0,85,0.00,,,0.00,weatherlink.com 1.10,2013-11-30 23:46:00,
2013-11-30 18:01:00,51.7,48.0,30.25,SSE,151,0.0,0.0,87,0.00,,,0.00,weatherlink.com 1.10,2013-12-01 00:01:00,
2013-11-30 18:16:00,51.5,48.0,30.24,SSE,151,0.0,0.0,89,0.00,,,0.00,weatherlink.com 1.10,2013-12-01 00:16:00,
2013-11-30 18:32:00,51.1,48.0,30.25,SSE,151,0.0,0.0,89,0.00,,,0.00,weatherlink.com 1.10,2013-12-01 00:32:00,
2013-11-30 18:47:00,50.6,48.0,30.25,SSE,151,0.0,0.0,89,0.00,,,0.00,weatherlink.com 1.10,2013-12-01 00:47:00,
2013-11-30 19:02:00,49.9,47.0,30.26,SSE,151,0.0,0.0,90,0.00,,,0.00,weatherlink.com 1.10,2013-12-01 01:02:00,
2013-11-30 19:17:00,49.6,47.0,30.26,SSE,151,0.0,0.0,90,0.00,,,0.00,weatherlink.com 1.10,2013-12-01 01:17:00,
2013-11-30 19:32:00,49.2,47.0,30.25,SSE,151,0.0,0.0,90,0.00,,,0.00,weatherlink.com 1.10,2013-12-01 01:32:00,
2013-11-30 19:47:00,49.0,46.0,30.25,SSE,151,0.0,0.0,90,0.00,,,0.00,weatherlink.com 1.10,2013-12-01 01:47:00,
2013-11-30 20:02:00,48.7,46.0,30.25,SSE,151,0.0,0.0,90,0.00,,,0.00,weatherlink.com 1.10,2013-12-01 02:02:00,
2013-11-30 20:17:00,48.7,46.0,30.24,SSE,151,0.0,0.0,90,0.00,,,0.00,weatherlink.com 1.10,2013-12-01 02:17:00,
2013-11-30 20:32:00,48.6,46.0,30.24,SSE,151,0.0,0.0,90,0.00,,,0.00,weatherlink.com 1.10,2013-12-01 02:32:00,
2013-11-30 20:47:00,48.7,46.0,30.24,SSE,151,0.0,0.0,90,0.00,,,0.00,weatherlink.com 1.10,2013-12-01 02:47:00,
2013-11-30 21:02:00,48.8,46.0,30.24,SSE,151,0.0,0.0,90,0.00,,,0.00,weatherlink.com 1.10,2013-12-01 03:02:00,
2013-11-30 21:17:00,49.0,46.0,30.25,SSE,151,0.0,0.0,90,0.00,,,0.00,weatherlink.com 1.10,2013-12-01 03:17:00,
2013-11-30 21:32:00,49.2,47.0,30.23,SSE,151,0.0,0.0,90,0.00,,,0.00,weatherlink.com 1.10,2013-12-01 03:32:00,
2013-11-30 21:47:00,49.3,47.0,30.23,SSE,151,0.0,0.0,90,0.00,,,0.00,weatherlink.com 1.10,2013-12-01 03:47:00,
2013-11-30 22:02:00,49.2,47.0,30.23,SSE,151,0.0,0.0,90,0.00,,,0.00,weatherlink.com 1.10,2013-12-01 04:02:00,
2013-11-30 22:17:00,48.8,46.0,30.22,SSE,151,0.0,0.0,90,0.00,,,0.00,weatherlink.com 1.10,2013-12-01 04:17:00,
2013-11-30 22:32:00,48.8,46.0,30.23,SSE,153,0.0,0.0,90,0.00,,,0.00,weatherlink.com 1.10,2013-12-01 04:32:00,
2013-11-30 22:47:00,49.4,47.0,30.23,SSE,153,0.0,0.0,90,0.00,,,0.00,weatherlink.com 1.10,2013-12-01 04:47:00,
2013-11-30 23:02:00,49.9,47.0,30.23,SSE,153,0.0,0.0,90,0.00,,,0.00,weatherlink.com 1.10,2013-12-01 05:02:00,
2013-11-30 23:17:00,50.2,47.0,30.24,SSE,153,0.0,0.0,90,0.00,,,0.00,weatherlink.com 1.10,2013-12-01 05:17:00,
2013-11-30 23:32:00,50.6,48.0,30.25,SSE,153,0.0,0.0,90,0.00,,,0.00,weatherlink.com 1.10,2013-12-01 05:32:00,
2013-11-30 23:47:00,51.1,48.0,30.25,SSE,153,0.0,0.0,90,0.00,,,0.00,weatherlink.com 1.10,2013-12-01 05:47:00,